sensor_id;sensor_type;location;lat;lon;timestamp;temperature;humidity
58554;DHT22;48119;53.218;6.576;2023-07-20T00:01:58;18.80;99.90
58554;DHT22;48119;53.218;6.576;2023-07-20T00:04:24;18.80;99.90
58554;DHT22;48119;53.218;6.576;2023-07-20T00:06:49;18.80;99.90
58554;DHT22;48119;53.218;6.576;2023-07-20T00:09:15;18.80;99.90
58554;DHT22;48119;53.218;6.576;2023-07-20T00:11:48;18.80;99.90
58554;DHT22;48119;53.218;6.576;2023-07-20T00:14:16;18.80;99.90
58554;DHT22;48119;53.218;6.576;2023-07-20T00:16:42;18.80;99.90
58554;DHT22;48119;53.218;6.576;2023-07-20T00:19:08;18.80;99.90
58554;DHT22;48119;53.218;6.576;2023-07-20T00:21:33;18.80;99.90
58554;DHT22;48119;53.218;6.576;2023-07-20T00:23:59;18.80;99.90
58554;DHT22;48119;53.218;6.576;2023-07-20T00:26:25;18.70;99.90
58554;DHT22;48119;53.218;6.576;2023-07-20T00:28:50;18.70;99.90
58554;DHT22;48119;53.218;6.576;2023-07-20T00:31:17;18.70;99.90
58554;DHT22;48119;53.218;6.576;2023-07-20T00:33:43;18.70;99.90
58554;DHT22;48119;53.218;6.576;2023-07-20T00:36:11;18.70;99.90
58554;DHT22;48119;53.218;6.576;2023-07-20T00:38:37;18.70;99.90
58554;DHT22;48119;53.218;6.576;2023-07-20T00:41:03;18.70;99.90
58554;DHT22;48119;53.218;6.576;2023-07-20T00:43:28;18.70;99.90
58554;DHT22;48119;53.218;6.576;2023-07-20T00:45:55;18.70;99.90
58554;DHT22;48119;53.218;6.576;2023-07-20T00:48:21;18.70;99.90
58554;DHT22;48119;53.218;6.576;2023-07-20T00:50:47;18.70;99.90
58554;DHT22;48119;53.218;6.576;2023-07-20T00:53:14;18.70;99.90
58554;DHT22;48119;53.218;6.576;2023-07-20T00:55:40;18.60;99.90
58554;DHT22;48119;53.218;6.576;2023-07-20T00:58:05;18.60;99.90
58554;DHT22;48119;53.218;6.576;2023-07-20T01:00:32;18.60;99.90
58554;DHT22;48119;53.218;6.576;2023-07-20T01:02:58;18.60;99.90
58554;DHT22;48119;53.218;6.576;2023-07-20T01:05:42;18.60;99.90
58554;DHT22;48119;53.218;6.576;2023-07-20T01:08:31;18.60;99.90
58554;DHT22;48119;53.218;6.576;2023-07-20T01:11:06;18.60;99.90
58554;DHT22;48119;53.218;6.576;2023-07-20T01:13:36;18.50;99.90
58554;DHT22;48119;53.218;6.576;2023-07-20T01:16:02;18.50;99.90
58554;DHT22;48119;53.218;6.576;2023-07-20T01:18:28;18.50;99.90
58554;DHT22;48119;53.218;6.576;2023-07-20T01:21:01;18.50;99.90
58554;DHT22;48119;53.218;6.576;2023-07-20T01:31:36;18.40;99.90
58554;DHT22;48119;53.218;6.576;2023-07-20T01:34:03;18.40;99.90
58554;DHT22;48119;53.218;6.576;2023-07-20T01:36:34;18.40;99.90
58554;DHT22;48119;53.218;6.576;2023-07-20T01:39:00;18.40;99.90
58554;DHT22;48119;53.218;6.576;2023-07-20T01:41:27;18.30;99.90
58554;DHT22;48119;53.218;6.576;2023-07-20T01:43:57;18.30;99.90
58554;DHT22;48119;53.218;6.576;2023-07-20T01:46:22;18.30;99.90
58554;DHT22;48119;53.218;6.576;2023-07-20T01:48:48;18.30;99.90
58554;DHT22;48119;53.218;6.576;2023-07-20T01:51:14;18.20;99.90
58554;DHT22;48119;53.218;6.576;2023-07-20T01:53:40;18.20;99.90
58554;DHT22;48119;53.218;6.576;2023-07-20T01:56:06;18.20;99.90
58554;DHT22;48119;53.218;6.576;2023-07-20T01:58:31;18.20;99.90
58554;DHT22;48119;53.218;6.576;2023-07-20T02:00:57;18.20;99.90
58554;DHT22;48119;53.218;6.576;2023-07-20T02:03:23;18.20;99.90
58554;DHT22;48119;53.218;6.576;2023-07-20T02:05:51;18.10;99.90
58554;DHT22;48119;53.218;6.576;2023-07-20T02:08:17;18.10;99.90
58554;DHT22;48119;53.218;6.576;2023-07-20T02:10:46;18.10;99.90
58554;DHT22;48119;53.218;6.576;2023-07-20T02:13:12;18.10;99.90
58554;DHT22;48119;53.218;6.576;2023-07-20T02:15:39;18.10;99.90
58554;DHT22;48119;53.218;6.576;2023-07-20T02:18:05;18.10;99.90
58554;DHT22;48119;53.218;6.576;2023-07-20T02:20:31;18.00;99.90
58554;DHT22;48119;53.218;6.576;2023-07-20T02:22:57;18.00;99.90
58554;DHT22;48119;53.218;6.576;2023-07-20T02:25:23;18.00;99.90
58554;DHT22;48119;53.218;6.576;2023-07-20T02:27:48;18.00;99.90
58554;DHT22;48119;53.218;6.576;2023-07-20T02:30:14;17.90;99.80
58554;DHT22;48119;53.218;6.576;2023-07-20T02:32:41;17.90;99.80
58554;DHT22;48119;53.218;6.576;2023-07-20T02:35:14;18.00;99.70
58554;DHT22;48119;53.218;6.576;2023-07-20T02:37:40;18.00;99.60
58554;DHT22;48119;53.218;6.576;2023-07-20T02:40:06;17.90;99.50
58554;DHT22;48119;53.218;6.576;2023-07-20T02:42:32;17.90;99.40
58554;DHT22;48119;53.218;6.576;2023-07-20T02:44:58;17.90;99.40
58554;DHT22;48119;53.218;6.576;2023-07-20T02:47:24;17.90;99.30
58554;DHT22;48119;53.218;6.576;2023-07-20T02:49:50;17.90;99.30
58554;DHT22;48119;53.218;6.576;2023-07-20T02:52:15;17.90;99.30
58554;DHT22;48119;53.218;6.576;2023-07-20T02:54:41;17.90;99.20
58554;DHT22;48119;53.218;6.576;2023-07-20T02:57:07;17.90;99.20
58554;DHT22;48119;53.218;6.576;2023-07-20T02:59:33;17.90;99.20
58554;DHT22;48119;53.218;6.576;2023-07-20T03:01:58;17.90;99.30
58554;DHT22;48119;53.218;6.576;2023-07-20T03:04:27;17.80;99.40
58554;DHT22;48119;53.218;6.576;2023-07-20T03:06:53;17.80;99.40
58554;DHT22;48119;53.218;6.576;2023-07-20T03:09:19;17.80;99.50
58554;DHT22;48119;53.218;6.576;2023-07-20T03:11:45;17.80;99.50
58554;DHT22;48119;53.218;6.576;2023-07-20T03:14:10;17.80;99.50
58554;DHT22;48119;53.218;6.576;2023-07-20T03:16:37;17.70;99.50
58554;DHT22;48119;53.218;6.576;2023-07-20T03:19:03;17.70;99.50
58554;DHT22;48119;53.218;6.576;2023-07-20T03:21:29;17.70;99.40
58554;DHT22;48119;53.218;6.576;2023-07-20T03:23:55;17.70;99.30
58554;DHT22;48119;53.218;6.576;2023-07-20T03:26:21;17.70;99.30
58554;DHT22;48119;53.218;6.576;2023-07-20T03:28:47;17.70;99.30
58554;DHT22;48119;53.218;6.576;2023-07-20T03:31:12;17.70;99.30
58554;DHT22;48119;53.218;6.576;2023-07-20T03:33:38;17.70;99.30
58554;DHT22;48119;53.218;6.576;2023-07-20T03:36:04;17.70;99.40
58554;DHT22;48119;53.218;6.576;2023-07-20T03:38:30;17.70;99.30
58554;DHT22;48119;53.218;6.576;2023-07-20T03:41:00;17.60;99.30
58554;DHT22;48119;53.218;6.576;2023-07-20T03:43:28;17.60;99.30
58554;DHT22;48119;53.218;6.576;2023-07-20T03:45:54;17.60;99.30
58554;DHT22;48119;53.218;6.576;2023-07-20T03:48:23;17.60;99.30
58554;DHT22;48119;53.218;6.576;2023-07-20T03:50:50;17.60;99.30
58554;DHT22;48119;53.218;6.576;2023-07-20T03:53:17;17.60;99.30
58554;DHT22;48119;53.218;6.576;2023-07-20T03:55:47;17.60;99.30
58554;DHT22;48119;53.218;6.576;2023-07-20T03:58:13;17.60;99.20
58554;DHT22;48119;53.218;6.576;2023-07-20T04:00:39;17.60;99.20
58554;DHT22;48119;53.218;6.576;2023-07-20T04:03:06;17.60;99.20
58554;DHT22;48119;53.218;6.576;2023-07-20T04:05:31;17.60;99.20
58554;DHT22;48119;53.218;6.576;2023-07-20T04:07:58;17.50;99.20
58554;DHT22;48119;53.218;6.576;2023-07-20T04:10:24;17.50;99.20
58554;DHT22;48119;53.218;6.576;2023-07-20T04:12:50;17.50;99.20
58554;DHT22;48119;53.218;6.576;2023-07-20T04:15:16;17.50;99.20
58554;DHT22;48119;53.218;6.576;2023-07-20T04:17:41;17.50;99.10
58554;DHT22;48119;53.218;6.576;2023-07-20T04:20:07;17.50;99.10
58554;DHT22;48119;53.218;6.576;2023-07-20T04:22:34;17.50;99.10
58554;DHT22;48119;53.218;6.576;2023-07-20T04:24:59;17.50;99.00
58554;DHT22;48119;53.218;6.576;2023-07-20T04:27:25;17.60;99.00
58554;DHT22;48119;53.218;6.576;2023-07-20T04:29:52;17.50;99.00
58554;DHT22;48119;53.218;6.576;2023-07-20T04:32:18;17.60;99.00
58554;DHT22;48119;53.218;6.576;2023-07-20T04:34:43;17.60;99.00
58554;DHT22;48119;53.218;6.576;2023-07-20T04:37:09;17.60;99.00
58554;DHT22;48119;53.218;6.576;2023-07-20T04:39:35;17.50;98.90
58554;DHT22;48119;53.218;6.576;2023-07-20T04:42:01;17.50;98.90
58554;DHT22;48119;53.218;6.576;2023-07-20T04:44:26;17.50;98.90
58554;DHT22;48119;53.218;6.576;2023-07-20T04:46:52;17.50;99.00
58554;DHT22;48119;53.218;6.576;2023-07-20T04:49:18;17.50;99.00
58554;DHT22;48119;53.218;6.576;2023-07-20T04:51:44;17.50;99.00
58554;DHT22;48119;53.218;6.576;2023-07-20T04:54:10;17.50;99.00
58554;DHT22;48119;53.218;6.576;2023-07-20T04:56:35;17.50;98.90
58554;DHT22;48119;53.218;6.576;2023-07-20T04:59:01;17.50;99.00
58554;DHT22;48119;53.218;6.576;2023-07-20T05:01:27;17.50;99.00
58554;DHT22;48119;53.218;6.576;2023-07-20T05:03:53;17.50;99.00
58554;DHT22;48119;53.218;6.576;2023-07-20T05:06:19;17.50;98.90
58554;DHT22;48119;53.218;6.576;2023-07-20T05:08:45;17.50;99.00
58554;DHT22;48119;53.218;6.576;2023-07-20T05:11:11;17.50;99.10
58554;DHT22;48119;53.218;6.576;2023-07-20T05:13:37;17.50;99.10
58554;DHT22;48119;53.218;6.576;2023-07-20T05:16:03;17.60;99.10
58554;DHT22;48119;53.218;6.576;2023-07-20T05:18:29;17.60;99.10
58554;DHT22;48119;53.218;6.576;2023-07-20T05:20:55;17.60;99.10
58554;DHT22;48119;53.218;6.576;2023-07-20T05:23:21;17.60;99.10
58554;DHT22;48119;53.218;6.576;2023-07-20T05:25:53;17.60;99.10
58554;DHT22;48119;53.218;6.576;2023-07-20T05:28:19;17.60;99.10
58554;DHT22;48119;53.218;6.576;2023-07-20T05:30:44;17.60;99.20
58554;DHT22;48119;53.218;6.576;2023-07-20T05:33:10;17.70;99.30
58554;DHT22;48119;53.218;6.576;2023-07-20T05:35:36;17.60;99.30
58554;DHT22;48119;53.218;6.576;2023-07-20T05:38:03;17.70;99.30
58554;DHT22;48119;53.218;6.576;2023-07-20T05:40:30;17.70;99.30
58554;DHT22;48119;53.218;6.576;2023-07-20T05:42:56;17.80;99.30
58554;DHT22;48119;53.218;6.576;2023-07-20T05:45:22;17.70;99.30
58554;DHT22;48119;53.218;6.576;2023-07-20T05:47:48;17.80;99.30
58554;DHT22;48119;53.218;6.576;2023-07-20T05:50:14;17.80;99.20
58554;DHT22;48119;53.218;6.576;2023-07-20T05:52:40;17.90;99.20
58554;DHT22;48119;53.218;6.576;2023-07-20T05:55:07;17.90;99.10
58554;DHT22;48119;53.218;6.576;2023-07-20T05:57:33;17.90;98.80
58554;DHT22;48119;53.218;6.576;2023-07-20T05:59:59;17.90;98.70
58554;DHT22;48119;53.218;6.576;2023-07-20T06:02:24;18.00;98.60
58554;DHT22;48119;53.218;6.576;2023-07-20T06:04:50;18.00;98.50
58554;DHT22;48119;53.218;6.576;2023-07-20T06:07:16;18.00;98.40
58554;DHT22;48119;53.218;6.576;2023-07-20T06:09:42;18.00;98.40
58554;DHT22;48119;53.218;6.576;2023-07-20T06:12:08;18.10;98.50
58554;DHT22;48119;53.218;6.576;2023-07-20T06:14:34;18.10;98.40
58554;DHT22;48119;53.218;6.576;2023-07-20T06:16:59;18.10;98.40
58554;DHT22;48119;53.218;6.576;2023-07-20T06:19:25;18.20;98.30
58554;DHT22;48119;53.218;6.576;2023-07-20T06:21:51;18.20;97.90
58554;DHT22;48119;53.218;6.576;2023-07-20T06:24:17;18.20;97.70
58554;DHT22;48119;53.218;6.576;2023-07-20T06:26:43;18.20;97.70
58554;DHT22;48119;53.218;6.576;2023-07-20T06:29:09;18.20;97.70
58554;DHT22;48119;53.218;6.576;2023-07-20T06:31:38;18.30;97.60
58554;DHT22;48119;53.218;6.576;2023-07-20T06:34:06;18.30;97.40
58554;DHT22;48119;53.218;6.576;2023-07-20T06:36:32;18.40;97.50
58554;DHT22;48119;53.218;6.576;2023-07-20T06:38:58;18.40;97.50
58554;DHT22;48119;53.218;6.576;2023-07-20T06:41:24;18.40;97.20
58554;DHT22;48119;53.218;6.576;2023-07-20T06:43:50;18.40;97.10
58554;DHT22;48119;53.218;6.576;2023-07-20T06:46:15;18.40;97.10
58554;DHT22;48119;53.218;6.576;2023-07-20T06:48:41;18.40;97.10
58554;DHT22;48119;53.218;6.576;2023-07-20T06:51:07;18.50;97.10
58554;DHT22;48119;53.218;6.576;2023-07-20T06:53:33;18.50;97.10
58554;DHT22;48119;53.218;6.576;2023-07-20T06:55:58;18.50;97.20
58554;DHT22;48119;53.218;6.576;2023-07-20T06:58:25;18.60;97.20
58554;DHT22;48119;53.218;6.576;2023-07-20T07:00:51;18.50;97.40
58554;DHT22;48119;53.218;6.576;2023-07-20T07:03:17;18.60;97.50
58554;DHT22;48119;53.218;6.576;2023-07-20T07:05:43;18.60;97.50
58554;DHT22;48119;53.218;6.576;2023-07-20T07:08:10;18.60;97.40
58554;DHT22;48119;53.218;6.576;2023-07-20T07:10:36;18.60;97.20
58554;DHT22;48119;53.218;6.576;2023-07-20T07:13:02;18.60;97.20
58554;DHT22;48119;53.218;6.576;2023-07-20T07:15:29;18.60;97.40
58554;DHT22;48119;53.218;6.576;2023-07-20T07:17:55;18.70;97.10
58554;DHT22;48119;53.218;6.576;2023-07-20T07:20:22;18.70;96.60
58554;DHT22;48119;53.218;6.576;2023-07-20T07:22:50;18.70;96.30
58554;DHT22;48119;53.218;6.576;2023-07-20T07:25:16;18.70;96.10
58554;DHT22;48119;53.218;6.576;2023-07-20T07:27:42;18.70;95.90
58554;DHT22;48119;53.218;6.576;2023-07-20T07:30:08;18.70;95.70
58554;DHT22;48119;53.218;6.576;2023-07-20T07:32:33;18.70;95.90
58554;DHT22;48119;53.218;6.576;2023-07-20T07:34:59;18.80;95.70
58554;DHT22;48119;53.218;6.576;2023-07-20T07:37:26;18.80;95.70
58554;DHT22;48119;53.218;6.576;2023-07-20T07:39:52;18.80;95.60
58554;DHT22;48119;53.218;6.576;2023-07-20T07:42:17;18.90;95.60
58554;DHT22;48119;53.218;6.576;2023-07-20T07:44:44;18.90;95.70
58554;DHT22;48119;53.218;6.576;2023-07-20T07:47:10;18.90;95.80
58554;DHT22;48119;53.218;6.576;2023-07-20T07:49:36;18.90;95.80
58554;DHT22;48119;53.218;6.576;2023-07-20T07:52:02;18.90;95.80
58554;DHT22;48119;53.218;6.576;2023-07-20T07:54:28;18.90;95.60
58554;DHT22;48119;53.218;6.576;2023-07-20T07:56:54;18.90;95.50
58554;DHT22;48119;53.218;6.576;2023-07-20T07:59:20;18.90;95.60
58554;DHT22;48119;53.218;6.576;2023-07-20T08:01:46;18.90;95.70
58554;DHT22;48119;53.218;6.576;2023-07-20T08:04:11;18.90;95.60
58554;DHT22;48119;53.218;6.576;2023-07-20T08:06:38;18.90;95.10
58554;DHT22;48119;53.218;6.576;2023-07-20T08:09:04;19.00;94.40
58554;DHT22;48119;53.218;6.576;2023-07-20T08:11:30;18.90;94.00
58554;DHT22;48119;53.218;6.576;2023-07-20T08:14:02;18.90;93.90
58554;DHT22;48119;53.218;6.576;2023-07-20T08:16:27;19.00;94.00
58554;DHT22;48119;53.218;6.576;2023-07-20T08:18:53;19.00;94.00
58554;DHT22;48119;53.218;6.576;2023-07-20T08:21:19;19.00;94.00
58554;DHT22;48119;53.218;6.576;2023-07-20T08:23:44;19.00;93.70
58554;DHT22;48119;53.218;6.576;2023-07-20T08:26:10;19.00;93.50
58554;DHT22;48119;53.218;6.576;2023-07-20T08:28:36;19.00;93.40
58554;DHT22;48119;53.218;6.576;2023-07-20T08:31:01;19.00;93.60
58554;DHT22;48119;53.218;6.576;2023-07-20T08:33:28;19.10;93.70
58554;DHT22;48119;53.218;6.576;2023-07-20T08:35:58;19.10;93.70
58554;DHT22;48119;53.218;6.576;2023-07-20T08:38:24;19.10;93.50
58554;DHT22;48119;53.218;6.576;2023-07-20T08:40:51;19.20;93.30
58554;DHT22;48119;53.218;6.576;2023-07-20T08:43:20;19.20;93.20
58554;DHT22;48119;53.218;6.576;2023-07-20T08:45:48;19.30;93.10
58554;DHT22;48119;53.218;6.576;2023-07-20T08:48:21;19.40;93.00
58554;DHT22;48119;53.218;6.576;2023-07-20T08:50:49;19.40;92.90
58554;DHT22;48119;53.218;6.576;2023-07-20T08:53:16;19.40;92.70
58554;DHT22;48119;53.218;6.576;2023-07-20T08:55:44;19.40;92.50
58554;DHT22;48119;53.218;6.576;2023-07-20T08:58:12;19.40;92.50
58554;DHT22;48119;53.218;6.576;2023-07-20T09:00:38;19.40;92.50
58554;DHT22;48119;53.218;6.576;2023-07-20T09:03:04;19.40;92.60
58554;DHT22;48119;53.218;6.576;2023-07-20T09:05:31;19.50;92.70
58554;DHT22;48119;53.218;6.576;2023-07-20T09:07:56;19.50;92.40
58554;DHT22;48119;53.218;6.576;2023-07-20T09:10:23;19.50;91.80
58554;DHT22;48119;53.218;6.576;2023-07-20T09:12:49;19.50;91.50
58554;DHT22;48119;53.218;6.576;2023-07-20T09:15:16;19.50;91.50
58554;DHT22;48119;53.218;6.576;2023-07-20T09:17:46;19.50;91.80
58554;DHT22;48119;53.218;6.576;2023-07-20T09:20:14;19.60;92.00
58554;DHT22;48119;53.218;6.576;2023-07-20T09:22:42;19.70;91.70
58554;DHT22;48119;53.218;6.576;2023-07-20T09:25:14;19.70;91.70
58554;DHT22;48119;53.218;6.576;2023-07-20T09:27:42;19.80;91.80
58554;DHT22;48119;53.218;6.576;2023-07-20T09:30:09;19.80;91.90
58554;DHT22;48119;53.218;6.576;2023-07-20T09:32:49;19.80;91.90
58554;DHT22;48119;53.218;6.576;2023-07-20T09:35:20;19.80;92.00
58554;DHT22;48119;53.218;6.576;2023-07-20T09:40:18;19.90;91.80
58554;DHT22;48119;53.218;6.576;2023-07-20T09:42:45;19.90;91.60
58554;DHT22;48119;53.218;6.576;2023-07-20T09:45:11;19.90;91.10
58554;DHT22;48119;53.218;6.576;2023-07-20T09:47:38;19.90;91.00
58554;DHT22;48119;53.218;6.576;2023-07-20T09:50:04;20.00;90.90
58554;DHT22;48119;53.218;6.576;2023-07-20T09:52:38;20.00;91.10
58554;DHT22;48119;53.218;6.576;2023-07-20T09:55:06;20.10;91.10
58554;DHT22;48119;53.218;6.576;2023-07-20T09:57:33;20.10;91.40
58554;DHT22;48119;53.218;6.576;2023-07-20T09:59:59;20.10;91.30
58554;DHT22;48119;53.218;6.576;2023-07-20T10:02:32;20.10;91.40
58554;DHT22;48119;53.218;6.576;2023-07-20T10:05:02;20.10;91.30
58554;DHT22;48119;53.218;6.576;2023-07-20T10:07:30;20.10;91.20
58554;DHT22;48119;53.218;6.576;2023-07-20T10:09:59;20.10;91.10
58554;DHT22;48119;53.218;6.576;2023-07-20T10:12:25;20.20;90.80
58554;DHT22;48119;53.218;6.576;2023-07-20T10:17:37;20.30;90.80
58554;DHT22;48119;53.218;6.576;2023-07-20T10:20:05;20.30;91.00
58554;DHT22;48119;53.218;6.576;2023-07-20T10:22:36;20.40;91.10
58554;DHT22;48119;53.218;6.576;2023-07-20T10:25:02;20.30;90.80
58554;DHT22;48119;53.218;6.576;2023-07-20T10:27:30;20.40;90.70
58554;DHT22;48119;53.218;6.576;2023-07-20T10:29:56;20.40;90.70
58554;DHT22;48119;53.218;6.576;2023-07-20T10:32:24;20.40;90.70
58554;DHT22;48119;53.218;6.576;2023-07-20T10:34:51;20.50;90.60
58554;DHT22;48119;53.218;6.576;2023-07-20T10:37:47;20.50;90.30
58554;DHT22;48119;53.218;6.576;2023-07-20T10:40:31;20.40;90.40
58554;DHT22;48119;53.218;6.576;2023-07-20T10:43:03;20.50;90.20
58554;DHT22;48119;53.218;6.576;2023-07-20T10:45:40;20.40;90.10
58554;DHT22;48119;53.218;6.576;2023-07-20T10:48:13;20.40;90.00
58554;DHT22;48119;53.218;6.576;2023-07-20T10:50:40;20.40;89.70
58554;DHT22;48119;53.218;6.576;2023-07-20T10:53:14;20.50;89.50
58554;DHT22;48119;53.218;6.576;2023-07-20T10:55:41;20.50;89.80
58554;DHT22;48119;53.218;6.576;2023-07-20T10:58:08;20.50;90.00
58554;DHT22;48119;53.218;6.576;2023-07-20T11:00:35;20.50;89.50
58554;DHT22;48119;53.218;6.576;2023-07-20T11:03:01;20.40;89.50
58554;DHT22;48119;53.218;6.576;2023-07-20T11:05:38;20.40;90.00
58554;DHT22;48119;53.218;6.576;2023-07-20T11:08:06;20.50;90.00
58554;DHT22;48119;53.218;6.576;2023-07-20T11:10:32;20.50;89.80
58554;DHT22;48119;53.218;6.576;2023-07-20T11:16:02;20.60;89.80
58554;DHT22;48119;53.218;6.576;2023-07-20T11:18:29;20.60;89.60
58554;DHT22;48119;53.218;6.576;2023-07-20T11:20:57;20.70;89.40
58554;DHT22;48119;53.218;6.576;2023-07-20T11:23:22;20.70;89.40
58554;DHT22;48119;53.218;6.576;2023-07-20T11:25:49;20.70;88.40
58554;DHT22;48119;53.218;6.576;2023-07-20T11:28:15;20.70;88.50
58554;DHT22;48119;53.218;6.576;2023-07-20T11:30:41;20.70;88.40
58554;DHT22;48119;53.218;6.576;2023-07-20T11:33:10;20.80;87.80
58554;DHT22;48119;53.218;6.576;2023-07-20T11:35:42;20.80;87.70
58554;DHT22;48119;53.218;6.576;2023-07-20T11:38:09;20.80;88.00
58554;DHT22;48119;53.218;6.576;2023-07-20T11:40:36;20.80;87.90
58554;DHT22;48119;53.218;6.576;2023-07-20T11:43:01;20.90;88.30
58554;DHT22;48119;53.218;6.576;2023-07-20T11:45:28;20.90;88.10
58554;DHT22;48119;53.218;6.576;2023-07-20T11:47:58;20.90;88.30
58554;DHT22;48119;53.218;6.576;2023-07-20T11:50:24;21.00;88.30
58554;DHT22;48119;53.218;6.576;2023-07-20T11:52:50;21.00;88.60
58554;DHT22;48119;53.218;6.576;2023-07-20T11:55:16;21.00;88.20
58554;DHT22;48119;53.218;6.576;2023-07-20T11:58:01;21.00;88.00
58554;DHT22;48119;53.218;6.576;2023-07-20T12:00:27;20.90;87.90
58554;DHT22;48119;53.218;6.576;2023-07-20T12:02:53;21.00;87.70
58554;DHT22;48119;53.218;6.576;2023-07-20T12:05:19;21.00;87.30
58554;DHT22;48119;53.218;6.576;2023-07-20T12:07:47;21.00;87.50
58554;DHT22;48119;53.218;6.576;2023-07-20T12:10:16;21.00;87.40
58554;DHT22;48119;53.218;6.576;2023-07-20T12:12:43;21.00;87.40
58554;DHT22;48119;53.218;6.576;2023-07-20T12:15:35;21.00;87.00
58554;DHT22;48119;53.218;6.576;2023-07-20T12:18:02;21.00;87.60
58554;DHT22;48119;53.218;6.576;2023-07-20T12:20:36;21.00;87.60
58554;DHT22;48119;53.218;6.576;2023-07-20T12:23:04;20.90;87.20
58554;DHT22;48119;53.218;6.576;2023-07-20T12:25:37;20.90;87.10
58554;DHT22;48119;53.218;6.576;2023-07-20T12:28:09;20.90;87.30
58554;DHT22;48119;53.218;6.576;2023-07-20T12:30:35;20.80;87.30
58554;DHT22;48119;53.218;6.576;2023-07-20T12:33:02;20.80;87.70
58554;DHT22;48119;53.218;6.576;2023-07-20T12:35:29;20.90;88.10
58554;DHT22;48119;53.218;6.576;2023-07-20T12:37:55;20.80;89.20
58554;DHT22;48119;53.218;6.576;2023-07-20T12:40:21;20.90;87.90
58554;DHT22;48119;53.218;6.576;2023-07-20T12:42:47;20.80;87.40
58554;DHT22;48119;53.218;6.576;2023-07-20T12:45:13;20.80;87.60
58554;DHT22;48119;53.218;6.576;2023-07-20T12:47:40;20.80;88.20
58554;DHT22;48119;53.218;6.576;2023-07-20T12:50:06;20.80;88.10
58554;DHT22;48119;53.218;6.576;2023-07-20T12:52:36;20.80;88.10
58554;DHT22;48119;53.218;6.576;2023-07-20T12:55:03;20.80;90.00
58554;DHT22;48119;53.218;6.576;2023-07-20T12:57:29;20.80;90.90
58554;DHT22;48119;53.218;6.576;2023-07-20T12:59:54;20.70;91.50
58554;DHT22;48119;53.218;6.576;2023-07-20T13:02:20;20.60;91.40
58554;DHT22;48119;53.218;6.576;2023-07-20T13:04:46;20.50;91.50
58554;DHT22;48119;53.218;6.576;2023-07-20T13:07:11;20.50;92.00
58554;DHT22;48119;53.218;6.576;2023-07-20T13:09:37;20.40;92.10
58554;DHT22;48119;53.218;6.576;2023-07-20T13:12:03;20.40;92.60
58554;DHT22;48119;53.218;6.576;2023-07-20T13:14:29;20.40;93.10
58554;DHT22;48119;53.218;6.576;2023-07-20T13:16:57;20.40;93.10
58554;DHT22;48119;53.218;6.576;2023-07-20T13:19:23;20.50;93.10
58554;DHT22;48119;53.218;6.576;2023-07-20T13:21:49;20.50;92.60
58554;DHT22;48119;53.218;6.576;2023-07-20T13:24:17;20.50;92.50
58554;DHT22;48119;53.218;6.576;2023-07-20T13:26:43;20.50;92.20
58554;DHT22;48119;53.218;6.576;2023-07-20T13:29:08;20.50;92.60
58554;DHT22;48119;53.218;6.576;2023-07-20T13:31:34;20.50;93.40
58554;DHT22;48119;53.218;6.576;2023-07-20T13:34:00;20.40;94.30
58554;DHT22;48119;53.218;6.576;2023-07-20T13:36:26;20.40;94.70
58554;DHT22;48119;53.218;6.576;2023-07-20T13:38:52;20.30;94.90
58554;DHT22;48119;53.218;6.576;2023-07-20T13:41:18;20.20;94.90
58554;DHT22;48119;53.218;6.576;2023-07-20T13:43:44;20.20;94.60
58554;DHT22;48119;53.218;6.576;2023-07-20T13:46:10;20.20;94.80
58554;DHT22;48119;53.218;6.576;2023-07-20T13:48:36;20.10;94.90
58554;DHT22;48119;53.218;6.576;2023-07-20T13:51:02;20.20;95.00
58554;DHT22;48119;53.218;6.576;2023-07-20T13:53:28;20.20;95.00
58554;DHT22;48119;53.218;6.576;2023-07-20T13:55:54;20.20;95.20
58554;DHT22;48119;53.218;6.576;2023-07-20T13:58:20;20.20;95.20
58554;DHT22;48119;53.218;6.576;2023-07-20T14:00:45;20.20;95.50
58554;DHT22;48119;53.218;6.576;2023-07-20T14:03:11;20.30;95.40
58554;DHT22;48119;53.218;6.576;2023-07-20T14:05:37;20.30;95.60
58554;DHT22;48119;53.218;6.576;2023-07-20T14:08:02;20.30;94.90
58554;DHT22;48119;53.218;6.576;2023-07-20T14:10:28;20.40;95.00
58554;DHT22;48119;53.218;6.576;2023-07-20T14:12:54;20.40;94.40
58554;DHT22;48119;53.218;6.576;2023-07-20T14:15:19;20.40;94.00
58554;DHT22;48119;53.218;6.576;2023-07-20T14:17:45;20.40;93.40
58554;DHT22;48119;53.218;6.576;2023-07-20T14:20:14;20.40;92.90
58554;DHT22;48119;53.218;6.576;2023-07-20T14:22:40;20.40;92.80
58554;DHT22;48119;53.218;6.576;2023-07-20T14:25:07;20.40;92.90
58554;DHT22;48119;53.218;6.576;2023-07-20T14:27:33;20.50;92.90
58554;DHT22;48119;53.218;6.576;2023-07-20T14:29:59;20.50;92.80
58554;DHT22;48119;53.218;6.576;2023-07-20T14:32:25;20.50;92.60
58554;DHT22;48119;53.218;6.576;2023-07-20T14:34:50;20.50;92.10
58554;DHT22;48119;53.218;6.576;2023-07-20T14:37:16;20.60;92.00
58554;DHT22;48119;53.218;6.576;2023-07-20T14:39:42;20.60;92.20
58554;DHT22;48119;53.218;6.576;2023-07-20T14:42:08;20.60;92.20
58554;DHT22;48119;53.218;6.576;2023-07-20T14:44:34;20.60;92.10
58554;DHT22;48119;53.218;6.576;2023-07-20T14:47:00;20.70;91.90
58554;DHT22;48119;53.218;6.576;2023-07-20T14:49:26;20.70;91.80
58554;DHT22;48119;53.218;6.576;2023-07-20T14:51:52;20.70;91.80
58554;DHT22;48119;53.218;6.576;2023-07-20T14:54:18;20.70;91.50
58554;DHT22;48119;53.218;6.576;2023-07-20T14:56:51;20.80;91.40
58554;DHT22;48119;53.218;6.576;2023-07-20T14:59:20;20.70;91.20
58554;DHT22;48119;53.218;6.576;2023-07-20T15:01:46;20.70;91.30
58554;DHT22;48119;53.218;6.576;2023-07-20T15:04:14;20.70;91.40
58554;DHT22;48119;53.218;6.576;2023-07-20T15:06:41;20.70;91.40
58554;DHT22;48119;53.218;6.576;2023-07-20T15:09:07;20.80;91.40
58554;DHT22;48119;53.218;6.576;2023-07-20T15:11:33;20.80;91.30
58554;DHT22;48119;53.218;6.576;2023-07-20T15:14:00;20.80;91.20
58554;DHT22;48119;53.218;6.576;2023-07-20T15:16:26;20.80;91.00
58554;DHT22;48119;53.218;6.576;2023-07-20T15:18:52;20.80;91.10
58554;DHT22;48119;53.218;6.576;2023-07-20T15:21:17;20.80;91.10
58554;DHT22;48119;53.218;6.576;2023-07-20T15:23:44;20.90;91.00
58554;DHT22;48119;53.218;6.576;2023-07-20T15:26:10;20.80;91.00
58554;DHT22;48119;53.218;6.576;2023-07-20T15:28:37;20.70;91.10
58554;DHT22;48119;53.218;6.576;2023-07-20T15:31:04;20.80;91.00
58554;DHT22;48119;53.218;6.576;2023-07-20T15:33:31;20.80;90.90
58554;DHT22;48119;53.218;6.576;2023-07-20T15:35:57;20.70;91.10
58554;DHT22;48119;53.218;6.576;2023-07-20T15:38:23;20.70;91.20
58554;DHT22;48119;53.218;6.576;2023-07-20T15:40:49;20.70;91.20
58554;DHT22;48119;53.218;6.576;2023-07-20T15:43:15;20.70;91.20
58554;DHT22;48119;53.218;6.576;2023-07-20T15:45:47;20.70;91.60